KRCR

Fulton County Airport

Rochester, Indiana, USA
METAR KRCR 210415Z AUTO 20004KT 10SM BKN021 04/02 A3005 RMK AO2
Observed Flight Rules
Jan-21 @ 04:15 UTC (24 minutes ago) Marginal Visual Flight Rules
Wind Visibility Clouds
200° at 4 knots 10 miles
  • Broken at 2,100' AGL
Temperatures Readings
Current 4°C / 39°F
Dewpoint 2°C / 36°F
Humidity 87%
Altimeter 30.05" Hg
Pressure 1018 hPa
Elevation 241
METAR KRCR 210415Z AUTO 20004KT 10SM BKN021 04/02 A3005 RMK AO2
Observed Flight Rules
Jan-21 @ 04:15 UTC
(24 minutes ago)
MVFR
Wind Visibility
200° at 4 knots 10 miles
Clouds
  • Broken at 2,100' AGL
Temperature Dewpoint
4°C / 39°F 2°C / 36°F
Humidity Altimeter Pressure
87% 30.05" Hg 1018 hPa